Tiempo atmosférico en la estación meteorológica de Jaca, Huesca (830 m.)



Fecha
DESCASC
Temp. máxima en grados centígrados (hora)
DESCASC
Temp. mínima en grados centígrados (hora)
DESCASC
Temp. media en grados centígrados
DESCASC
Racha de viento máxima en m/sg (hora)
DESCASC
Velocidad máxima media en intervalos de 10 minutos(hora)
DESCASC
Precipitaciones diarias en mm
DESCASC
Precipitaciones de 00:00 a 06:00 en mm
DESCASC
Precipitaciones de 06:00 a 12:00 en mm
DESCASC
Precipitaciones de 12:00 a 18:00 en mm
DESCASC
Precipitaciones de 18:00 a 24:00 en mm
DESCASC
19-01-2020 9.7 (13:20) 1.2 (20:50) 5.4 21.67 (17:10) 12.5 (16:50) 2.7 2.7 0 0 0
18-01-2020 9.5 (14:50) -1.9 (03:30) 3.8 5.56 (20:00) 2.5 (10:20) 2.3 0 0 0 2.3
17-01-2020 8.3 (00:30) 0.4 (23:10) 4.4 12.5 (12:20) 5.83 (12:20) 4.4 1.9 0.2 2.3 0
16-01-2020 12.9 (16:20) 0 (00:00) 6.4 7.22 (04:20) 3.89 (04:20) 0 0 0 0 0
15-01-2020 13.2 (15:40) -1.8 (-00:0) 5.7 7.5 (03:50) 3.89 (03:50) 0 0 0 0 0
14-01-2020 13.2 (15:40) -2.4 (-00:0) 5.4 7.5 (01:00) 3.61 (01:10) 0 0 0 0 0
13-01-2020 12 (14:30) -3.3 (-00:0) 4.4 7.22 (23:20) 3.89 (23:20) 0 0 0 0 0
12-01-2020 9.6 (15:30) -4.4 (-00:0) 2.6 6.39 (23:30) 3.61 (22:30) 0 0 0 0 0
11-01-2020 10.2 (14:40) -4.1 (-00:0) 3 6.11 (23:40) 3.61 (20:50) 0 0 0 0 0
10-01-2020 9.7 (14:20) -0.8 (-00:0) 4.4 13.89 (16:20) 8.89 (16:10) 0.2 0.2 0 0 0
09-01-2020 15.3 (14:30) 0.9 (00:00) 8.1 7.78 (08:50) 3.61 (08:50) 0 0 0 0 0
08-01-2020 14.9 (14:10) 1 (00:00) 7.9 6.11 (22:30) 3.33 (23:00) 0 0 0 0 0
07-01-2020 11.4 (16:20) -2.4 (-00:0) 4.5 5.83 (01:30) 3.06 (03:10) 0 0 0 0 0
06-01-2020 10.8 (16:10) -1.4 (-00:0) 4.7 5 (23:00) 2.5 (22:50) 0 0 0 0 0
05-01-2020 14.4 (15:30) -1.9 (-00:0) 6.2 5.28 (23:20) 2.78 (01:10) 0 0 0 0 0
04-01-2020 11.1 (15:00) -1.7 (-00:0) 4.7 5 (22:30) 2.5 (10:50) 0 0 0 0 0
03-01-2020 6.3 (14:30) -2.4 (-00:0) 2 5.28 (05:00) 2.5 (04:30) 0 0 0 0 0
02-01-2020 13.1 (13:40) -1.4 (-00:0) 5.9 5.83 (00:40) 3.33 (00:40) 0 0 0 0 0
01-01-2020 10.8 (15:00) -2.9 (-00:0) 4 5.28 (23:30) 2.5 (23:00) 0 0 0 0 0
31-12-2019 3 (14:10) -4.3 (-00:0) -0.7 4.17 (23:40) 1.67 (00:20) 0 0 0 0 0
30-12-2019 6.1 (15:00) -2 (-00:0) 2 3.33 (03:20) 1.67 (22:10) 0 0 0 0 0
29-12-2019 11.1 (14:40) -0.7 (-00:0) 5.2 5 (19:30) 2.5 (19:30) 0 0 0 0 0
28-12-2019 14.6 (15:20) -0.5 (-00:0) 7.1 6.11 (23:10) 3.33 (20:00) 0 0 0 0 0
27-12-2019 12.8 (15:10) -2.1 (-00:0) 5.4 6.39 (04:10) 3.33 (04:10) 0 0 0 0 0
26-12-2019 11.2 (14:00) 0.4 (00:00) 5.8 8.61 (10:40) 4.17 (10:40) 0 0 0 0 0
25-12-2019 16.1 (15:30) 2.2 (00:00) 9.2 6.39 (01:30) 3.06 (01:10) 0 0 0 0 0
24-12-2019 13.4 (15:40) 1.5 (00:00) 7.4 3.89 (16:20) 1.67 (09:10) 0 0 0 0 0
23-12-2019 9.8 (13:30) 2.6 (00:00) 6.2 12.22 (04:00) 6.67 (00:20) 0.1 0 0.1 0 0
22-12-2019 8.1 (00:10) 4.7 (00:00) 6.4 19.72 (06:40) 10.28 (06:40) 7.6 2.9 0.1 4.5 0.1

Gráficas

Temp. máximas Temp. mínimas Temp. medias Precipitaciones Rachas de viento máximas Velocidades máximas media en intervalos de 10 minutos

Datos horarios

Fecha y hora oficial Temperatura (ºC) Velocidad del viento (km/h) Dirección del viento Racha (km/h) Dirección de racha Precipitación (mm) Presión (hPa) Tendencia (hPa) Humedad (%)
2020-01-20 23:00:00 -2.5 0 Calma 12 Nordeste 0 -- -- 60
2020-01-20 22:00:00 -2.5 4 Norte 8 Nordeste 0 -- -- 59
2020-01-20 21:00:00 -1.8 0 Calma 7 Oeste 0 -- -- 55
2020-01-20 20:00:00 -0.8 2 Oeste 8 Norte 0 -- -- 49
2020-01-20 19:00:00 0.1 0 Calma 9 Noroeste 0 -- -- 45
2020-01-20 18:00:00 1 4 Noroeste 12 Noroeste 0 -- -- 43
2020-01-20 17:00:00 1.9 6 Noroeste 13 Noroeste 0 -- -- 40
2020-01-20 16:00:00 2.6 6 Noroeste 13 Noroeste 0 -- -- 38
2020-01-20 15:00:00 2.8 6 Noroeste 14 Noroeste 0 -- -- 36
2020-01-20 14:00:00 2.1 5 Noroeste 15 Noroeste 0 -- -- 36
2020-01-20 13:00:00 1.8 4 Oeste 12 Oeste 0 -- -- 38
2020-01-20 12:00:00 0.1 4 Noroeste 13 Noroeste 0 -- -- 42
2020-01-20 11:00:00 -1 4 Oeste 12 Noroeste 0 -- -- 45
2020-01-20 10:00:00 -1.9 0 Calma 23 Nordeste 0 -- -- 47
2020-01-20 09:00:00 -3.3 5 Sur 14 Sudeste 0 -- -- 49
2020-01-20 08:00:00 -4.2 4 Sudeste 14 Sudeste 0 -- -- 51
2020-01-20 07:00:00 -3.3 4 Sudeste 18 Oeste 0 -- -- 44
2020-01-20 06:00:00 -2.8 6 Oeste 21 Sudoeste 0 -- -- 40
2020-01-20 05:00:00 -1.6 3 Noroeste 22 Noroeste 0 -- -- 33
2020-01-20 04:00:00 -0.7 8 Noroeste 24 Noroeste 0 -- -- 30
2020-01-20 03:00:00 0.3 11 Norte 35 Nordeste 0 -- -- 28
2020-01-20 02:00:00 -0.2 9 Oeste 35 Nordeste 0 -- -- 29
2020-01-20 01:00:00 1.3 19 Norte 45 Nordeste 0 -- -- 27
2020-01-20 00:00:00 1.4 24 Norte 57 Nordeste 0 -- -- 27
2020-01-19 23:00:00 1.6 26 Norte 56 Norte 0 -- -- 27
2020-01-19 22:00:00 1.6 35 Norte 72 Nordeste 0 -- -- 27
2020-01-19 21:00:00 1.5 38 Norte 73 Norte 0 -- -- 26
2020-01-19 20:00:00 1.7 36 Norte 66 Nordeste 0 -- -- 24
2020-01-19 19:00:00 2.4 42 Norte 74 Nordeste 0 -- -- 21
2020-01-19 18:00:00 2.9 36 Norte 78 Norte 0 -- -- 21
2020-01-19 17:00:00 3.7 42 Norte 77 Norte 0 -- -- 22
2020-01-19 16:00:00 5.5 31 Nordeste 72 Nordeste 0 -- -- 19
2020-01-19 15:00:00 8.1 16 Nordeste 39 Nordeste 0 -- -- 14
2020-01-19 14:00:00 8.6 12 Nordeste 34 Nordeste 0 -- -- 18
2020-01-19 13:00:00 7.8 12 Nordeste 31 Nordeste 0 -- -- 23
2020-01-19 12:00:00 7.6 0 Calma 19 Oeste 0 -- -- 32
2020-01-19 11:00:00 4.9 4 Norte 14 Noroeste 0 -- -- 78
2020-01-19 10:00:00 1.9 4 Sur 14 Sur 0 -- -- 90
2020-01-19 09:00:00 1.3 2 Noroeste 8 Oeste 0 -- -- 90
2020-01-19 08:00:00 1.6 0 Calma 8 Sur 0 -- -- 90
2020-01-19 07:00:00 1.7 0 Calma 4 Sudeste 0 -- -- 90
2020-01-19 06:00:00 1.8 0 Calma 8 Noroeste 0 -- -- 90
2020-01-19 05:00:00 1.7 2 Oeste 6 Oeste 0.2 -- -- 90
2020-01-19 04:00:00 1.8 0 Calma 8 Oeste 0.2 -- -- 90
2020-01-19 03:00:00 2.1 3 Oeste 12 Noroeste 0.6 -- -- 90
2020-01-19 02:00:00 2.5 6 Noroeste 13 Noroeste 0.6 -- -- 89
2020-01-19 01:00:00 3 4 Noroeste 15 Noroeste 1.1 -- -- 88
2020-01-19 00:00:00 3.3 7 Noroeste 16 Oeste 0.6 -- -- 85
2020-01-18 23:00:00 3.4 5 Este 14 Este 0.5 -- -- 78
2020-01-18 22:00:00 4 5 Este 14 Este 1.2 -- -- 70
2020-01-18 21:00:00 5.3 5 Sudeste 17 Este 0 -- -- 59
2020-01-18 20:00:00 5.7 7 Este 20 Este 0 -- -- 51
2020-01-18 19:00:00 6.3 4 Sudeste 16 Sudeste 0 -- -- 52
2020-01-18 18:00:00 7.2 5 Sudeste 12 Sudeste 0 -- -- 47
2020-01-18 17:00:00 8.1 3 Sudoeste 18 Sudeste 0 -- -- 42
2020-01-18 16:00:00 8.9 6 Sudeste 18 Sudeste 0 -- -- 32
2020-01-18 15:00:00 9.3 8 Sudeste 19 Sudeste 0 -- -- 31
2020-01-18 14:00:00 8.8 5 Sudeste 15 Este 0 -- -- 34
2020-01-18 13:00:00 7.5 5 Sudeste 16 Sudeste 0 -- -- 38
2020-01-18 12:00:00 4.7 4 Sudeste 12 Sudeste 0 -- -- 51
2020-01-18 11:00:00 3 2 Sudeste 19 Sudeste 0 -- -- 55
2020-01-18 10:00:00 1.7 8 Sudeste 17 Sudeste 0 -- -- 63
2020-01-18 09:00:00 0.2 7 Sudeste 15 Sudeste 0 -- -- 72
2020-01-18 08:00:00 0.3 3 Sur 11 Sudeste 0 -- -- 72
2020-01-18 07:00:00 0.1 8 Sudeste 15 Sur 0 -- -- 73
2020-01-18 06:00:00 -0.3 0 Calma 12 Sudeste 0 -- -- 78
2020-01-18 05:00:00 -0.7 0 Calma 17 Nordeste 0 -- -- 81
2020-01-18 04:00:00 -1.6 0 Calma 7 Sudeste 0 -- -- 81
2020-01-18 03:00:00 -1.6 2 Nordeste 10 Nordeste 0 -- -- 79
2020-01-18 02:00:00 -1 3 Sudeste 10 Sudoeste 0 -- -- 77
2020-01-18 01:00:00 -0.4 3 Oeste 7 Norte 0 -- -- 77
2020-01-18 00:00:00 0.5 5 Sudoeste 17 Oeste 0 -- -- 72
2020-01-17 23:00:00 0.6 3 Noroeste 13 Sudoeste 0 -- -- 70
2020-01-17 22:00:00 1.2 5 Oeste 20 Nordeste 0 -- -- 66
2020-01-17 21:00:00 1.6 6 Nordeste 16 Noroeste 0 -- -- 65
2020-01-17 20:00:00 3.9 5 Norte 44 Nordeste 0 -- -- 54
2020-01-17 19:00:00 2.7 10 Norte 31 Noroeste 0 -- -- 64
2020-01-17 18:00:00 3.6 16 Noroeste 34 Noroeste 0 -- -- 63
2020-01-17 17:00:00 4.6 11 Noroeste 39 Norte 0 -- -- 59
2020-01-17 16:00:00 6 14 Noroeste 42 Noroeste 0 -- -- 55
2020-01-17 15:00:00 5.8 15 Noroeste 36 Noroeste 0.1 -- -- 64
2020-01-17 14:00:00 4.8 16 Norte 44 Noroeste 0.4 -- -- 76
2020-01-17 13:00:00 4.7 10 Norte 45 Norte 1.8 -- -- 86
2020-01-17 12:00:00 7.3 0 Calma 9 Sudoeste 0.1 -- -- 78
2020-01-17 11:00:00 6.4 4 Noroeste 7 Noroeste 0.1 -- -- 85
2020-01-17 10:00:00 5.1 0 Calma 11 Sudeste 0 -- -- 85
2020-01-17 09:00:00 4.8 4 Sur 13 Nordeste 0 -- -- 85
2020-01-17 08:00:00 4.9 2 Nordeste 14 Nordeste 0 -- -- 83
2020-01-17 07:00:00 5.4 3 Este 8 Sudeste 0 -- -- 82
2020-01-17 06:00:00 5.5 4 Nordeste 15 Nordeste 0 -- -- 83
2020-01-17 05:00:00 5.4 3 Este 20 Nordeste 0 -- -- 87
2020-01-17 04:00:00 5.6 8 Nordeste 22 Nordeste 1.3 -- -- 85
2020-01-17 03:00:00 6.6 3 Norte 9 Norte 0.6 -- -- 72
2020-01-17 02:00:00 7.2 2 Noroeste 12 Sur 0 -- -- 62
2020-01-17 01:00:00 7.7 6 Sur 14 Sur 0 -- -- 60
2020-01-17 00:00:00 8 3 Sudeste 15 Sur 0 -- -- 61
2020-01-16 23:00:00 7.8 2 Sur 17 Sudeste 0 -- -- 61
2020-01-16 22:00:00 8.1 6 Sudeste 17 Sudeste 0 -- -- 58
2020-01-16 21:00:00 9.3 4 Sudeste 17 Este 0 -- -- 54
2020-01-16 20:00:00 9.5 5 Sudeste 14 Sudeste 0 -- -- 53
2020-01-16 19:00:00 9.9 4 Sudeste 12 Sudeste 0 -- -- 51
2020-01-16 18:00:00 10.8 0 Calma 15 Sudeste 0 -- -- 48
2020-01-16 17:00:00 11.7 4 Sudeste 23 Sudeste 0 -- -- 44
2020-01-16 16:00:00 12 7 Sudeste 18 Sudeste 0 -- -- 44
2020-01-16 15:00:00 11.8 5 Sudeste 21 Sudeste 0 -- -- 44
2020-01-16 14:00:00 12.7 7 Sudeste 21 Sur 0 -- -- 43
2020-01-16 13:00:00 11.9 6 Sudeste 22 Sudeste 0 -- -- 44
2020-01-16 12:00:00 10.4 6 Este 17 Sudeste 0 -- -- 52
2020-01-16 11:00:00 4.8 0 Calma 13 Norte 0 -- -- 58
2020-01-16 10:00:00 2.3 6 Nordeste 25 Nordeste 0 -- -- 68
2020-01-16 09:00:00 1.1 7 Nordeste 21 Nordeste 0 -- -- 72
2020-01-16 08:00:00 0.5 7 Nordeste 18 Nordeste 0 -- -- 77
2020-01-16 07:00:00 0.2 4 Nordeste 17 Nordeste 0 -- -- 79
2020-01-16 06:00:00 0.5 10 Nordeste 18 Nordeste 0 -- -- 79
2020-01-16 05:00:00 1.2 5 Nordeste 26 Nordeste 0 -- -- 77
2020-01-16 04:00:00 1.1 8 Nordeste 23 Nordeste 0 -- -- 79
2020-01-16 03:00:00 1.3 6 Nordeste 17 Nordeste 0 -- -- 77
2020-01-16 02:00:00 2.3 10 Nordeste 23 Nordeste 0 -- -- 73
2020-01-16 01:00:00 2.8 10 Nordeste 20 Nordeste 0 -- -- 69
2020-01-16 00:00:00 3.7 8 Nordeste 18 Nordeste 0 -- -- 64
2020-01-15 23:00:00 5.3 4 Este 12 Nordeste 0 -- -- 60
2020-01-15 22:00:00 6.2 0 Calma 9 Nordeste 0 -- -- 57
2020-01-15 21:00:00 6.8 3 Nordeste 9 Nordeste 0 -- -- 55
2020-01-15 20:00:00 7.6 0 Calma 6 Oeste 0 -- -- 51
2020-01-15 19:00:00 8.3 0 Calma 6 Noroeste 0 -- -- 47
2020-01-15 18:00:00 9.2 3 Noroeste 10 Oeste 0 -- -- 44
2020-01-15 17:00:00 10.3 5 Oeste 13 Noroeste 0 -- -- 40
2020-01-15 16:00:00 12.5 3 Oeste 8 Noroeste 0 -- -- 37
2020-01-15 15:00:00 12 3 Sudoeste 9 Noroeste 0 -- -- 38
2020-01-15 14:00:00 12.2 5 Sudoeste 7 Oeste 0 -- -- 37
2020-01-15 13:00:00 10.7 0 Calma 10 Sur 0 -- -- 38
2020-01-15 12:00:00 7.3 5 Sudeste 21 Sudeste 0 -- -- 42
2020-01-15 11:00:00 6.2 6 Sudeste 18 Sudeste 0 -- -- 43
2020-01-15 10:00:00 2.5 7 Sudeste 16 Sudeste 0 -- -- 51
2020-01-15 09:00:00 -0.5 2 Nordeste 13 Este 0 -- -- 55
2020-01-15 08:00:00 0 2 Nordeste 10 Sudeste 0 -- -- 53
2020-01-15 07:00:00 0.7 3 Nordeste 13 Este 0 -- -- 51
2020-01-15 06:00:00 0 5 Nordeste 18 Nordeste 0 -- -- 53
2020-01-15 05:00:00 -0.5 5 Sudeste 22 Nordeste 0 -- -- 55
2020-01-15 04:00:00 0.3 10 Nordeste 27 Nordeste 0 -- -- 54
2020-01-15 03:00:00 -1.4 3 Nordeste 13 Nordeste 0 -- -- 62
2020-01-15 02:00:00 -0.7 0 Calma 15 Sudeste 0 -- -- 57
2020-01-15 01:00:00 0.1 6 Sudeste 12 Sur 0 -- -- 58
2020-01-15 00:00:00 0 0 Calma 8 Sur 0 -- -- 58
2020-01-14 23:00:00 0.3 0 Calma 14 Sudeste 0 -- -- 57
2020-01-14 22:00:00 1.6 3 Oeste 9 Noroeste 0 -- -- 55
2020-01-14 21:00:00 1.4 3 Sudoeste 8 Este 0 -- -- 55
2020-01-14 20:00:00 2 0 Calma 9 Nordeste 0 -- -- 51
2020-01-14 19:00:00 4.1 4 Nordeste 15 Nordeste 0 -- -- 45
2020-01-14 18:00:00 6.3 3 Nordeste 9 Sudeste 0 -- -- 40
2020-01-14 17:00:00 -- -- -- -- -- -- -- -- --
2020-01-14 16:00:00 -- -- -- -- -- -- -- -- --
2020-01-14 15:00:00 -- -- -- -- -- -- -- -- --
2020-01-14 14:00:00 -- -- -- -- -- -- -- -- --
2020-01-14 13:00:00 -- -- -- -- -- -- -- -- --
2020-01-14 12:00:00 -- -- -- -- -- -- -- -- --
2020-01-14 11:00:00 -- -- -- -- -- -- -- -- --
2020-01-14 10:00:00 -- -- -- -- -- -- -- -- --
2020-01-14 09:00:00 -- -- -- -- -- -- -- -- --
2020-01-14 08:00:00 -- -- -- -- -- -- -- -- --
2020-01-14 07:00:00 -- -- -- -- -- -- -- -- --
2020-01-14 06:00:00 -- -- -- -- -- -- -- -- --
2020-01-14 05:00:00 -- -- -- -- -- -- -- -- --
2020-01-14 04:00:00 -- -- -- -- -- -- -- -- --
2020-01-14 03:00:00 -- -- -- -- -- -- -- -- --
2020-01-14 02:00:00 -- -- -- -- -- -- -- -- --
2020-01-14 01:00:00 -- -- -- -- -- -- -- -- --
2020-01-14 00:00:00 -- -- -- -- -- -- -- -- --
2020-01-13 23:00:00 -- -- -- -- -- -- -- -- --
2020-01-13 22:00:00 -- -- -- -- -- -- -- -- --
2020-01-13 21:00:00 -- -- -- -- -- -- -- -- --
2020-01-13 20:00:00 -- -- -- -- -- -- -- -- --
2020-01-13 19:00:00 -- -- -- -- -- -- -- -- --
2020-01-13 18:00:00 -- -- -- -- -- -- -- -- --
2020-01-13 17:00:00 -- -- -- -- -- -- -- -- --
2020-01-13 16:00:00 -- -- -- -- -- -- -- -- --
2020-01-13 15:00:00 -- -- -- -- -- -- -- -- --
2020-01-13 14:00:00 -- -- -- -- -- -- -- -- --
2020-01-13 13:00:00 -- -- -- -- -- -- -- -- --
2020-01-13 12:00:00 -- -- -- -- -- -- -- -- --
2020-01-13 11:00:00 -- -- -- -- -- -- -- -- --
2020-01-13 10:00:00 -- -- -- -- -- -- -- -- --
2020-01-13 09:00:00 -- -- -- -- -- -- -- -- --
2020-01-13 08:00:00 -- -- -- -- -- -- -- -- --
2020-01-13 07:00:00 -- -- -- -- -- -- -- -- --
2020-01-13 06:00:00 -- -- -- -- -- -- -- -- --
2020-01-13 05:00:00 -- -- -- -- -- -- -- -- --
2020-01-13 04:00:00 -- -- -- -- -- -- -- -- --
2020-01-13 03:00:00 -- -- -- -- -- -- -- -- --
2020-01-13 02:00:00 -- -- -- -- -- -- -- -- --
2020-01-13 01:00:00 -- -- -- -- -- -- -- -- --
2020-01-13 00:00:00 -- -- -- -- -- -- -- -- --
2020-01-12 23:00:00 -- -- -- -- -- -- -- -- --
2020-01-12 22:00:00 -- -- -- -- -- -- -- -- --
2020-01-12 21:00:00 -- -- -- -- -- -- -- -- --
2020-01-12 20:00:00 -- -- -- -- -- -- -- -- --
2020-01-12 19:00:00 -- -- -- -- -- -- -- -- --
2020-01-12 18:00:00 -- -- -- -- -- -- -- -- --
2020-01-12 17:00:00 -- -- -- -- -- -- -- -- --
2020-01-12 16:00:00 -- -- -- -- -- -- -- -- --
2020-01-12 15:00:00 -- -- -- -- -- -- -- -- --
2020-01-12 14:00:00 -- -- -- -- -- -- -- -- --
2020-01-12 13:00:00 -- -- -- -- -- -- -- -- --
2020-01-12 12:00:00 -- -- -- -- -- -- -- -- --
2020-01-12 11:00:00 -- -- -- -- -- -- -- -- --
2020-01-12 10:00:00 -- -- -- -- -- -- -- -- --
2020-01-12 09:00:00 -- -- -- -- -- -- -- -- --
2020-01-12 08:00:00 -- -- -- -- -- -- -- -- --
2020-01-12 07:00:00 -- -- -- -- -- -- -- -- --
2020-01-12 06:00:00 -- -- -- -- -- -- -- -- --
2020-01-12 05:00:00 -- -- -- -- -- -- -- -- --
2020-01-12 04:00:00 -- -- -- -- -- -- -- -- --
2020-01-12 03:00:00 -- -- -- -- -- -- -- -- --
2020-01-12 02:00:00 -- -- -- -- -- -- -- -- --
2020-01-12 01:00:00 -- -- -- -- -- -- -- -- --
2020-01-12 00:00:00 -- -- -- -- -- -- -- -- --
2020-01-11 23:00:00 -- -- -- -- -- -- -- -- --
2020-01-11 22:00:00 -- -- -- -- -- -- -- -- --
2020-01-11 21:00:00 -- -- -- -- -- -- -- -- --
2020-01-11 20:00:00 -- -- -- -- -- -- -- -- --
2020-01-11 19:00:00 -- -- -- -- -- -- -- -- --
2020-01-11 18:00:00 -- -- -- -- -- -- -- -- --
2020-01-11 17:00:00 -- -- -- -- -- -- -- -- --
2020-01-11 16:00:00 -- -- -- -- -- -- -- -- --
2020-01-11 15:00:00 -- -- -- -- -- -- -- -- --
2020-01-11 14:00:00 -- -- -- -- -- -- -- -- --
2020-01-11 13:00:00 -- -- -- -- -- -- -- -- --
2020-01-11 12:00:00 -- -- -- -- -- -- -- -- --
2020-01-11 11:00:00 -- -- -- -- -- -- -- -- --
2020-01-11 10:00:00 -- -- -- -- -- -- -- -- --
2020-01-11 09:00:00 -- -- -- -- -- -- -- -- --
2020-01-11 08:00:00 -- -- -- -- -- -- -- -- --
2020-01-11 07:00:00 -- -- -- -- -- -- -- -- --
2020-01-11 06:00:00 -- -- -- -- -- -- -- -- --
2020-01-11 05:00:00 -- -- -- -- -- -- -- -- --
2020-01-11 04:00:00 -- -- -- -- -- -- -- -- --
2020-01-11 03:00:00 -- -- -- -- -- -- -- -- --
2020-01-11 02:00:00 -- -- -- -- -- -- -- -- --
2020-01-11 01:00:00 -- -- -- -- -- -- -- -- --
2020-01-11 00:00:00 -- -- -- -- -- -- -- -- --
2020-01-10 23:00:00 -- -- -- -- -- -- -- -- --
2020-01-10 22:00:00 -- -- -- -- -- -- -- -- --
2020-01-10 21:00:00 -- -- -- -- -- -- -- -- --
2020-01-10 20:00:00 -- -- -- -- -- -- -- -- --
2020-01-10 19:00:00 -- -- -- -- -- -- -- -- --
2020-01-10 18:00:00 -- -- -- -- -- -- -- -- --
2020-01-10 17:00:00 -- -- -- -- -- -- -- -- --
2020-01-10 16:00:00 -- -- -- -- -- -- -- -- --
2020-01-10 15:00:00 -- -- -- -- -- -- -- -- --
2020-01-10 14:00:00 -- -- -- -- -- -- -- -- --
2020-01-10 13:00:00 -- -- -- -- -- -- -- -- --
2020-01-10 12:00:00 -- -- -- -- -- -- -- -- --
2020-01-10 11:00:00 -- -- -- -- -- -- -- -- --
2020-01-10 10:00:00 3.1 3 Noroeste 22 Noroeste 0 -- -- 73
2020-01-10 09:00:00 1.4 3 Este 27 Noroeste 0 -- -- 78
2020-01-10 08:00:00 1.1 12 Oeste 27 Noroeste 0 -- -- 83
2020-01-10 07:00:00 1.8 13 Noroeste 31 Noroeste 0 -- -- 79
2020-01-10 06:00:00 2.1 9 Noroeste 26 Noroeste 0 -- -- 82
2020-01-10 05:00:00 3 9 Noroeste 26 Noroeste 0 -- -- 83
2020-01-10 04:00:00 2.8 13 Noroeste 24 Noroeste 0 -- -- 88
2020-01-10 03:00:00 2.9 8 Noroeste 22 Noroeste 0 -- -- 88
2020-01-10 02:00:00 3.1 9 Oeste 21 Noroeste 0.2 -- -- 88
2020-01-10 01:00:00 3.4 8 Noroeste 24 Noroeste 0 -- -- 87
2020-01-10 00:00:00 4.8 7 Noroeste 17 Noroeste 0 -- -- 74
2020-01-09 23:00:00 5.2 7 Sudoeste 14 Oeste 0 -- -- 70
2020-01-09 22:00:00 5.8 0 Calma 11 Sudoeste 0 -- -- 65
2020-01-09 21:00:00 6.6 2 Oeste 10 Noroeste 0 -- -- 61
2020-01-09 20:00:00 7 2 Nordeste 14 Nordeste 0 -- -- 57
2020-01-09 19:00:00 8.7 3 Sudeste 18 Noroeste 0 -- -- 47
2020-01-09 18:00:00 9.9 3 Oeste 18 Noroeste 0 -- -- 46
2020-01-09 17:00:00 10.8 4 Noroeste 17 Noroeste 0 -- -- 46
2020-01-09 16:00:00 13.4 8 Sur 19 Sur 0 -- -- 36
2020-01-09 15:00:00 14.4 8 Sur 18 Sur 0 -- -- 35
2020-01-09 14:00:00 14.3 3 Sudoeste 12 Noroeste 0 -- -- 37
2020-01-09 13:00:00 13.1 7 Oeste 14 Sudoeste 0 -- -- 38
2020-01-09 12:00:00 10.9 4 Sudeste 13 Sudeste 0 -- -- 43
2020-01-09 11:00:00 6.2 0 Calma 14 Este 0 -- -- 51
2020-01-09 10:00:00 3.8 3 Sudeste 17 Nordeste 0 -- -- 62
2020-01-09 09:00:00 2.3 10 Nordeste 28 Nordeste 0 -- -- 63
2020-01-09 08:00:00 1.9 5 Nordeste 22 Nordeste 0 -- -- 64
2020-01-09 07:00:00 2.1 8 Nordeste 20 Nordeste 0 -- -- 64
2020-01-09 06:00:00 1.2 8 Sudeste 15 Nordeste 0 -- -- 66
2020-01-09 05:00:00 1.4 2 Nordeste 9 Nordeste 0 -- -- 65
2020-01-09 04:00:00 1.6 0 Calma 10 Sur 0 -- -- 66
2020-01-09 03:00:00 1.9 2 Oeste 11 Norte 0 -- -- 66
2020-01-09 02:00:00 2.3 0 Calma 24 Nordeste 0 -- -- 66
2020-01-09 01:00:00 2.4 12 Nordeste 23 Nordeste 0 -- -- 66
2020-01-09 00:00:00 3.1 10 Nordeste 19 Nordeste 0 -- -- 65
2020-01-08 23:00:00 4 12 Nordeste 22 Nordeste 0 -- -- 63
2020-01-08 22:00:00 4.5 9 Nordeste 20 Nordeste 0 -- -- 62
2020-01-08 21:00:00 4.6 9 Nordeste 20 Nordeste 0 -- -- 62
2020-01-08 20:00:00 5.4 4 Nordeste 14 Nordeste 0 -- -- 59
2020-01-08 19:00:00 6.7 7 Nordeste 17 Nordeste 0 -- -- 57
2020-01-08 18:00:00 8.4 4 Nordeste 9 Nordeste 0 -- -- 49
2020-01-08 17:00:00 12.2 4 Oeste 10 Noroeste 0 -- -- 40
2020-01-08 16:00:00 14.1 4 Oeste 12 Sudoeste 0 -- -- 38
2020-01-08 15:00:00 13.3 6 Oeste 13 Sudoeste 0 -- -- 38
2020-01-08 14:00:00 14.4 4 Sudoeste 9 Oeste 0 -- -- 38
2020-01-08 13:00:00 13.6 0 Calma 6 Oeste 0 -- -- 40
2020-01-08 12:00:00 11.7 3 Sudoeste 7 Sudeste 0 -- -- 42
2020-01-08 11:00:00 8.1 3 Sur 6 Sudeste 0 -- -- 55
2020-01-08 10:00:00 3.4 0 Calma 10 Nordeste 0 -- -- 69
2020-01-08 09:00:00 1.7 3 Sudeste 11 Este 0 -- -- 72
2020-01-08 08:00:00 1.7 6 Nordeste 20 Nordeste 0 -- -- 73
2020-01-08 07:00:00 1.5 4 Sudeste 19 Norte 0 -- -- 72
2020-01-08 06:00:00 1.3 4 Sur 10 Nordeste 0 -- -- 72
2020-01-08 05:00:00 1.9 0 Calma 9 Sur 0 -- -- 72
2020-01-08 04:00:00 1.7 0 Calma 8 Sur 0 -- -- 72
2020-01-08 03:00:00 1.4 0 Calma 8 Sudeste 0 -- -- 72
2020-01-08 02:00:00 1.4 3 Sudeste 8 Sudeste 0 -- -- 73
2020-01-08 01:00:00 1.4 0 Calma 13 Nordeste 0 -- -- 70
2020-01-08 00:00:00 1.8 6 Nordeste 13 Nordeste 0 -- -- 70
2020-01-07 23:00:00 2.6 4 Nordeste 14 Nordeste 0 -- -- 68
2020-01-07 22:00:00 2.6 3 Nordeste 10 Nordeste 0 -- -- 65
2020-01-07 21:00:00 3.3 0 Calma 8 Nordeste 0 -- -- 62
2020-01-07 20:00:00 3.8 4 Nordeste 14 Nordeste 0 -- -- 59
2020-01-07 19:00:00 4.7 3 Nordeste 6 Nordeste 0 -- -- 55
2020-01-07 18:00:00 7 0 Calma 6 Sur 0 -- -- 44
2020-01-07 17:00:00 9.9 3 Sudoeste 8 Oeste 0 -- -- 37
2020-01-07 16:00:00 10.7 3 Noroeste 9 Oeste 0 -- -- 36
2020-01-07 15:00:00 10.7 3 Oeste 9 Sudoeste 0 -- -- 38
2020-01-07 14:00:00 10.1 3 Sudoeste 11 Sudoeste 0 -- -- 40
2020-01-07 13:00:00 7.8 2 Sur 8 Sudoeste 0 -- -- 46
2020-01-07 12:00:00 5.3 0 Calma 5 Sudeste 0 -- -- 48
2020-01-07 11:00:00 2.1 0 Calma 5 Nordeste 0 -- -- 61
2020-01-07 10:00:00 0.2 2 Sur 13 Nordeste 0 -- -- 72
2020-01-07 09:00:00 -2.2 3 Nordeste 14 Nordeste 0 -- -- 78
2020-01-07 08:00:00 -2.2 0 Calma 12 Nordeste 0 -- -- 79
2020-01-07 07:00:00 -2.1 4 Nordeste 19 Nordeste 0 -- -- 77
2020-01-07 06:00:00 -1.7 10 Nordeste 19 Nordeste 0 -- -- 79
2020-01-07 05:00:00 -2 7 Nordeste 15 Nordeste 0 -- -- 79
2020-01-07 04:00:00 -1.2 2 Sur 20 Nordeste 0 -- -- 78
2020-01-07 03:00:00 -1 11 Nordeste 21 Nordeste 0 -- -- 78
2020-01-07 02:00:00 -0.6 4 Nordeste 21 Nordeste 0 -- -- 79
2020-01-07 01:00:00 -0.7 3 Norte 8 Nordeste 0 -- -- 79
2020-01-07 00:00:00 -0.1 0 Calma 14 Nordeste 0 -- -- 77
2020-01-06 23:00:00 0.2 8 Nordeste 18 Este 0 -- -- 77
2020-01-06 22:00:00 0.3 0 Calma 12 Sudeste 0 -- -- 73
2020-01-06 21:00:00 1.1 4 Sur 14 Nordeste 0 -- -- 70
2020-01-06 20:00:00 1.6 4 Nordeste 10 Nordeste 0 -- -- 67
2020-01-06 19:00:00 3.4 0 Calma 6 Nordeste 0 -- -- 57
2020-01-06 18:00:00 5.9 2 Nordeste 8 Oeste 0 -- -- 46
2020-01-06 17:00:00 9 4 Sudoeste 16 Noroeste 0 -- -- 38
2020-01-06 16:00:00 10.6 6 Sudoeste 15 Noroeste 0 -- -- 37
2020-01-06 15:00:00 9.9 5 Oeste 16 Noroeste 0 -- -- 35
2020-01-06 14:00:00 9.8 4 Oeste 14 Oeste 0 -- -- 38
2020-01-06 13:00:00 9.4 5 Sudoeste 10 Oeste 0 -- -- 40
2020-01-06 12:00:00 8.6 3 Sur 10 Sur 0 -- -- 38
2020-01-06 11:00:00 5.5 3 Sur 9 Sur 0 -- -- 51
2020-01-06 10:00:00 1.5 3 Sudeste 7 Sudeste 0 -- -- 58